Tiempo atmosférico en la estación meteorológica de Girona Aeropuerto, Girona (143 m.)



Fecha
DESCASC
Temp. máxima en grados centígrados (hora)
DESCASC
Temp. mínima en grados centígrados (hora)
DESCASC
Temp. media en grados centígrados
DESCASC
Racha de viento máxima en m/sg (hora)
DESCASC
Velocidad máxima media en intervalos de 10 minutos(hora)
DESCASC
Precipitaciones diarias en mm
DESCASC
Precipitaciones de 00:00 a 06:00 en mm
DESCASC
Precipitaciones de 06:00 a 12:00 en mm
DESCASC
Precipitaciones de 12:00 a 18:00 en mm
DESCASC
Precipitaciones de 18:00 a 24:00 en mm
DESCASC
13-10-2019 27.1 (15:20) 17.4 (09:00) 22.3 9.17 (16:10) 6.39 (16:30) 0 0 0 0 0
12-10-2019 25.7 (14:50) 16.8 (02:20) 21.3 12.5 (14:00) 9.17 (14:20) 0 0 0 0 0
11-10-2019 27.9 (15:30) 10.6 (05:10) 19.3 10.28 (17:30) 7.5 (18:00) 0 0 0 0 0
10-10-2019 23.5 (14:40) 14.3 (00:00) 18.9 7.78 (16:30) 5.83 (17:30) 0 0 0 0 0
09-10-2019 25.1 (12:40) 12.8 (00:00) 19 10.28 (13:30) 5.28 (14:10) 0.5 0 0 0.5 0
08-10-2019 27.6 (14:30) 10.2 (00:00) 18.9 9.72 (16:20) 7.78 (16:40) 0 0 0 0 0
07-10-2019 26.3 (17:00) 12 (00:00) 19.1 9.17 (05:00) 6.39 (05:00) 0 0 0 0 0
06-10-2019 23.2 (12:10) 13.5 (00:00) 18.4 8.33 (13:50) 5.83 (14:00) 0 0 0 0 0
05-10-2019 -- (--) -- (--) -- -- (--) -- (--) -- 0 -- 0 0
04-10-2019 25.8 (14:40) 10.7 (00:00) 18.2 10.28 (16:00) 7.78 (15:50) 0 0 0 0 0
03-10-2019 26.3 (15:40) 13.5 (00:00) 19.9 6.67 (15:50) 4.72 (16:40) 0 0 0 0 0
02-10-2019 26.2 (15:10) 13.5 (00:00) 19.9 9.17 (16:50) 6.11 (17:20) 0 0 0 0 0
01-10-2019 28.6 (14:10) 13 (00:00) 20.8 9.72 (19:50) 6.11 (19:50) 0 0 0 0 0
30-09-2019 29.3 (14:50) 13.6 (00:00) 21.4 10.83 (17:50) 8.61 (17:50) 0 0 0 0 0
29-09-2019 30.8 (16:30) 12.1 (00:00) 21.4 8.33 (18:30) 5.28 (19:00) 0 0 0 0 0
28-09-2019 27.9 (14:20) 15.9 (00:00) 21.9 11.39 (14:50) 8.61 (16:30) 0 0 0 0 0
27-09-2019 28.3 (15:40) 14.5 (00:00) 21.4 8.33 (14:30) 5.56 (16:10) 0 0 0 0 0
26-09-2019 26.7 (14:20) 13.3 (00:00) 20 7.78 (15:50) 5.56 (16:00) 0 0 0 0 0
25-09-2019 25.6 (14:50) 15.5 (00:00) 20.6 7.22 (15:30) 4.44 (15:50) 0 0 0 0 0
24-09-2019 31.3 (15:40) 12.5 (00:00) 21.9 8.33 (16:20) 6.11 (16:50) 0 0 0 0 0
23-09-2019 25.9 (15:00) 15.2 (00:00) 20.5 10.28 (17:10) 7.78 (17:20) 0 0 0 0 0
22-09-2019 28.5 (15:30) 14.4 (00:00) 21.4 10.28 (19:20) 7.5 (19:40) 0 0 0 0 0
21-09-2019 20.2 (18:50) 17.1 (00:00) 18.7 8.33 (09:40) 6.11 (13:50) 12.1 0 10.2 1.9 0
20-09-2019 28.5 (15:00) 16.3 (00:00) 22.4 9.72 (19:20) 4.72 (18:50) 0 0 0 0 0
19-09-2019 30.7 (15:20) 15.4 (00:00) 23.1 10.28 (16:10) 7.78 (16:30) 0.5 0 0 0 0.5
18-09-2019 32.2 (15:10) 15.8 (00:00) 24 8.89 (16:00) 6.67 (16:20) 0 0 0 0 0
17-09-2019 32.2 (14:40) 14.7 (00:00) 23.5 8.33 (17:40) 6.11 (18:00) 0.7 0 0 0.7 0
16-09-2019 31.5 (14:20) 14.3 (00:00) 22.9 7.78 (14:20) 5.56 (17:00) 0 0 0 0 0
15-09-2019 30.5 (16:20) 15.2 (00:00) 22.8 7.78 (16:20) 5 (18:50) 1.1 1.1 0 0 0

Gráficas

Temp. máximas Temp. mínimas Temp. medias Precipitaciones Rachas de viento máximas Velocidades máximas media en intervalos de 10 minutos

Datos horarios

Fecha y hora oficial Temperatura (ºC) Velocidad del viento (km/h) Dirección del viento Racha (km/h) Dirección de racha Precipitación (mm) Presión (hPa) Tendencia (hPa) Humedad (%)
2019-10-14 23:00:00 17.9 9 Sur 11 Sur 0 994.6 -2.1 97
2019-10-14 22:00:00 18.9 6 Oeste 9 Sudoeste 0 994.4 -2.2 95
2019-10-14 21:00:00 20.3 6 Sur 28 Sur 0 995.4 -1 92
2019-10-14 20:00:00 20.9 13 Sur 26 Sudoeste 0.6 996.7 0.7 94
2019-10-14 19:00:00 22 19 Sur 28 Sur 0 996.6 -0.4 83
2019-10-14 18:00:00 23 17 Sur 32 Sur 0 996.4 -0.5 77
2019-10-14 17:00:00 24.7 15 Sudeste 24 Sur 0 996 -2.3 68
2019-10-14 16:00:00 25 13 Sur 21 Sur 0 997 -2.5 65
2019-10-14 15:00:00 26.4 11 Sudeste 21 Sudeste 0 996.9 -3.2 57
2019-10-14 14:00:00 24.4 10 Este 17 Este 0 998.3 -1.8 67
2019-10-14 13:00:00 23.5 3 Este 13 Nordeste 0 999.5 -0.8 71
2019-10-14 12:00:00 22.6 6 Nordeste 13 Nordeste 0 1000.1 0 76
2019-10-14 11:00:00 21.1 9 Nordeste 13 Norte 0 1000.1 0.1 84
2019-10-14 10:00:00 19.8 7 Norte 15 Norte 0 1000.3 0.3 88
2019-10-14 09:00:00 18.5 4 Norte 9 Norte 0 1000.1 -0.3 92
2019-10-14 08:00:00 18 5 Nordeste 8 Nordeste 0 1000 -0.9 95
2019-10-14 07:00:00 18.1 0 Calma 5 Sudoeste 0 1000 -1 95
2019-10-14 06:00:00 18.5 0 Calma 9 Noroeste 0 1000.4 -0.9 95
2019-10-14 05:00:00 18.4 5 Noroeste 9 Noroeste 0 1000.9 -1 96
2019-10-14 04:00:00 18.2 5 Oeste 8 Oeste 0 1001 -1 97
2019-10-14 03:00:00 18.2 0 Calma 8 Este 0 1001.3 -1.2 96
2019-10-14 02:00:00 18.7 2 Sudeste 9 Sudeste 0 1001.9 -0.8 96
2019-10-14 01:00:00 18.2 0 Calma -- -- 0 1002 -0.5 95
2019-10-14 00:00:00 18.6 0 Calma 5 Oeste 0 1002.5 0.1 92
2019-10-13 23:00:00 19.6 0 Calma 5 Oeste 0 1002.7 0.4 91
2019-10-13 22:00:00 20 0 Calma 11 Sur 0 1002.5 0.6 89
2019-10-13 21:00:00 20.2 9 Sur 15 Sur 0 1002.4 0.7 87
2019-10-13 20:00:00 20.8 10 Sur 18 Sudeste 0 1002.3 0.7 84
2019-10-13 19:00:00 21.4 16 Sur 30 Sur 0 1001.9 0.4 81
2019-10-13 18:00:00 23.4 19 Sur 30 Sur 0 1001.7 0 72
2019-10-13 17:00:00 24.2 19 Sur 33 Sur 0 1001.6 -0.8 68
2019-10-13 16:00:00 26.1 22 Sur 32 Sur 0 1001.5 -1.6 61
2019-10-13 15:00:00 26.4 18 Sur 26 Sur 0 1001.7 -1.6 59
2019-10-13 14:00:00 25.9 15 Sur 28 Sur 0 1002.4 -0.9 62
2019-10-13 13:00:00 25.2 14 Sur 22 Sur 0 1003.1 0 65
2019-10-13 12:00:00 24.1 8 Sur 15 Sudoeste 0 1003.3 0.6 70
2019-10-13 11:00:00 22.1 4 Sudoeste 11 Noroeste 0 1003.3 0.9 77
2019-10-13 10:00:00 19.4 4 Noroeste 9 Oeste 0 1003.1 0.7 86
2019-10-13 09:00:00 17.4 8 Nordeste 11 Nordeste 0 1002.7 0.5 94
2019-10-13 08:00:00 18 0 Calma 9 Noroeste 0 1002.4 -0.1 89
2019-10-13 07:00:00 18.2 0 Calma 13 Noroeste 0 1002.4 -0.3 87
2019-10-13 06:00:00 17.8 0 Calma 5 Oeste 0 1002.2 -1.2 91
2019-10-13 05:00:00 18 0 Calma 5 Noroeste 0 1002.5 -1 90
2019-10-13 04:00:00 18.2 0 Calma 8 Noroeste 0 1002.7 -1 90
2019-10-13 03:00:00 18.1 0 Calma 5 Noroeste 0 1003.4 -0.7 93
2019-10-13 02:00:00 18.5 0 Calma 5 Sur 0 1003.5 -0.6 92
2019-10-13 01:00:00 18.6 0 Calma 8 Oeste 0 1003.7 0.2 92
2019-10-13 00:00:00 18.4 6 Sudoeste 8 Sudoeste 0 1004.1 0.6 95
2019-10-12 23:00:00 18.3 4 Oeste 13 Sudoeste 0 1004.1 1 94
2019-10-12 22:00:00 18.7 5 Sudoeste 22 Sur 0 1003.5 0.8 93
2019-10-12 21:00:00 19.5 15 Sur 28 Sur 0 1003.5 0.6 90
2019-10-12 20:00:00 20 23 Sur 33 Sur 0 1003.1 0.4 85
2019-10-12 19:00:00 20.6 27 Sur 33 Sur 0 1002.7 -0.4 82
2019-10-12 18:00:00 21.7 22 Sur 39 Sur 0 1002.9 -0.3 78
2019-10-12 17:00:00 24.1 29 Sur 39 Sur 0 1002.7 -1.2 65
2019-10-12 16:00:00 24.8 27 Sur 41 Sur 0 1003.1 -1.5 61
2019-10-12 15:00:00 25.1 31 Sur 42 Sur 0 1003.2 -1.7 58
2019-10-12 14:00:00 24.9 32 Sur 45 Sur 0 1003.9 -0.8 60
2019-10-12 13:00:00 23.3 32 Sur 41 Sur 0 1004.6 0.3 72
2019-10-12 12:00:00 22.5 28 Sur 39 Sur 0 1004.9 1 79
2019-10-12 11:00:00 21.9 21 Sur 32 Sur 0 1004.7 1.1 84
2019-10-12 10:00:00 19.8 7 Oeste 17 Oeste 0 1004.3 1 90
2019-10-12 09:00:00 18.5 11 Sudoeste 18 Sudoeste 0 1003.9 0.8 92
2019-10-12 08:00:00 18.4 12 Sudoeste 24 Sudoeste 0 1003.6 0.5 92
2019-10-12 07:00:00 17.7 17 Sudoeste 26 Sudoeste 0 1003.3 0 95
2019-10-12 06:00:00 17.7 11 Sudoeste 22 Sudoeste 0 1003.1 -0.6 96
2019-10-12 05:00:00 17.4 10 Sudoeste 18 Sur 0 1003.1 -0.8 96
2019-10-12 04:00:00 17.6 10 Sudoeste 18 Sudoeste 0 1003.3 -1 95
2019-10-12 03:00:00 17.3 6 Sudoeste 15 Sur 0 1003.7 -0.7 95
2019-10-12 02:00:00 17.1 9 Sudoeste 15 Sudoeste 0 1003.9 -0.5 94
2019-10-12 01:00:00 16.9 0 Calma 9 Sudoeste 0 1004.3 0.4 93
2019-10-12 00:00:00 17.6 4 Sur 13 Sudoeste 0 1004.4 1.1 90
2019-10-11 23:00:00 17.9 6 Sudoeste 9 Sudoeste 0 1004.4 1.4 92
2019-10-11 22:00:00 19.3 0 Calma 18 Sudoeste 0 1003.9 1.4 83
2019-10-11 21:00:00 20.6 14 Sudoeste 28 Sur 0 1003.3 1.1 82
2019-10-11 20:00:00 21.2 18 Sur 28 Sudoeste 0 1003 0.7 79
2019-10-11 19:00:00 23.3 23 Sur 35 Sudoeste 0 1002.5 -0.1 70
2019-10-11 18:00:00 25.2 27 Sur 37 Sur 0 1002.2 -1 60
2019-10-11 17:00:00 27 23 Sur 32 Sur 0 1002.3 -1.8 53
2019-10-11 16:00:00 27.3 20 Sur 32 Sudoeste 0 1002.6 -2.3 50
2019-10-11 15:00:00 27.1 18 Sur 28 Sur 0 1003.2 -2.3 50
2019-10-11 14:00:00 26.4 16 Sur 30 Sur 0 1004.1 -1.8 53
2019-10-11 13:00:00 25.4 24 Sur 32 Sur 0 1004.9 -1.2 56
2019-10-11 12:00:00 23.3 17 Sudoeste 26 Sudoeste 0 1005.5 -0.4 64
2019-10-11 11:00:00 19.7 2 Sudoeste 9 Sur 0 1005.9 0.2 76
2019-10-11 10:00:00 14.7 0 Calma -- -- 0 1006.1 0.5 91
2019-10-11 09:00:00 13.3 0 Calma 5 Oeste 0 1005.9 0.3 97
2019-10-11 08:00:00 12.1 0 Calma 8 Oeste 0 1005.7 -0.1 98
2019-10-11 07:00:00 11.3 0 Calma -- -- 0 1005.6 -0.2 98
2019-10-11 06:00:00 11 0 Calma 11 Sur 0 1005.6 -0.8 98
2019-10-11 05:00:00 10.8 2 Norte 9 Sudoeste 0 1005.8 -0.7 97
2019-10-11 04:00:00 11.3 9 Sur 15 Sur 0 1005.8 -0.9 95
2019-10-11 03:00:00 11.9 0 Calma 9 Norte 0 1006.4 -0.5 95
2019-10-11 02:00:00 12.8 4 Oeste 9 Sudoeste 0 1006.5 -0.2 94
2019-10-11 01:00:00 13.9 0 Calma 5 Oeste 0 1006.7 0.2 90
2019-10-11 00:00:00 14.5 0 Calma 5 Nordeste 0 1006.9 0.8 86
2019-10-10 23:00:00 16.5 0 Calma -- -- 0 1006.7 0.9 82
2019-10-10 22:00:00 17.5 2 Oeste 11 Sur 0 1006.5 1 79
2019-10-10 21:00:00 18 7 Sudeste 17 Sudeste 0 1006.1 1.1 76
2019-10-10 20:00:00 18.4 11 Sudeste 18 Sur 0 1005.8 0.7 73
2019-10-10 19:00:00 19.3 13 Sudeste 24 Sudeste 0 1005.5 0.2 76
2019-10-10 18:00:00 20.9 20 Sur 28 Sudoeste 0 1005 -0.7 68
2019-10-10 17:00:00 22.7 16 Sur 28 Sudoeste 0 1005.1 -1.2 60
2019-10-10 16:00:00 23.4 13 Sur 26 Sur 0 1005.3 -1.6 58
2019-10-10 15:00:00 23.2 13 Sur 22 Sur 0 1005.7 -1.6 54
2019-10-10 14:00:00 22.7 10 Sur 17 Sur 0 1006.3 -1.1 52
2019-10-10 13:00:00 20.5 7 Este 13 Sudeste 0 1006.9 -0.3 58
2019-10-10 12:00:00 19.3 4 Este 13 Sudeste 0 1007.3 1.1 64
2019-10-10 11:00:00 18.1 5 Sudeste 13 Este 0 1007.4 2 68
2019-10-10 10:00:00 16.4 9 Sudeste 13 Sudeste 0 1007.2 2.2 85
2019-10-10 09:00:00 16.2 0 Calma 11 Norte 0 1006.2 1.2 72
2019-10-10 08:00:00 15.9 9 Nordeste 15 Norte 0 1005.4 0.8 73
2019-10-10 07:00:00 15.5 8 Norte 15 Nordeste 0 1005 0.5 80
2019-10-10 06:00:00 15.7 10 Norte 13 Norte 0 1005 0.1 92
2019-10-10 05:00:00 15.8 3 Nordeste 5 Este 0 1004.6 -0.5 93
2019-10-10 04:00:00 16 0 Calma 8 Sudoeste 0 1004.5 -0.4 89
2019-10-10 03:00:00 16.3 4 Oeste 8 Oeste 0 1004.9 0.1 82
2019-10-10 02:00:00 16.4 5 Oeste 9 Noroeste 0 1005.1 0.6 85
2019-10-10 01:00:00 16.8 0 Calma 5 Oeste 0 1004.9 0.6 81
2019-10-10 00:00:00 17.2 4 Este 9 Este 0 1004.8 0.7 70
2019-10-09 23:00:00 17.2 2 Noroeste 9 Nordeste 0 1004.5 0.8 72
2019-10-09 22:00:00 17 3 Nordeste 9 Este 0 1004.3 1.2 75
2019-10-09 21:00:00 17.5 0 Calma -- -- 0 1004.1 1.3 90
2019-10-09 20:00:00 17.5 0 Calma 5 Sur 0 1003.7 1.2 91
2019-10-09 19:00:00 17.5 0 Calma 8 Sudoeste 0 1003.1 0.6 91
2019-10-09 18:00:00 17.5 6 Sudoeste 8 Sudoeste 0 1002.8 0.9 90
2019-10-09 17:00:00 17.5 4 Este 13 Este 0.1 1002.5 1 86
2019-10-09 16:00:00 17.9 7 Este 28 Este 0.4 1002.5 0.9 86
2019-10-09 15:00:00 20.1 16 Este 28 Este 0 1001.9 0 70
2019-10-09 14:00:00 22.2 17 Este 37 Nordeste 0 1001.5 -0.6 66
2019-10-09 13:00:00 24.7 4 Este 15 Sur 0 1001.6 -0.1 54
2019-10-09 12:00:00 23.8 5 Sudeste 17 Este 0 1001.9 0.4 61
2019-10-09 11:00:00 21.4 11 Nordeste 18 Norte 0 1002.1 1.4 71
2019-10-09 10:00:00 18.6 9 Nordeste 13 Este 0 1001.7 0.8 84
2019-10-09 09:00:00 15 8 Nordeste 11 Nordeste 0 1001.5 0.6 97
2019-10-09 08:00:00 12.9 -- -- -- -- 0 1000.7 -0.3 97
2019-10-09 07:00:00 13.6 0 Calma 5 Noroeste 0 1000.9 -0.1 96
2019-10-09 06:00:00 14.1 0 Calma -- -- 0 1000.9 -0.7 97
2019-10-09 05:00:00 14.5 0 Calma 8 Norte 0 1001 -0.5 97
2019-10-09 04:00:00 14.8 3 Norte -- -- 0 1001 -0.6 95
2019-10-09 03:00:00 15.4 4 Este 8 Norte 0 1001.6 0 95
2019-10-09 02:00:00 15.9 0 Calma 8 Este 0 1001.5 0.1 92
2019-10-09 01:00:00 16.3 6 Nordeste 9 Nordeste 0 1001.6 0.4 90
2019-10-09 00:00:00 17.5 5 Oeste 11 Norte 0 1001.6 1.1 87
2019-10-08 23:00:00 19 8 Norte 11 Norte 0 1001.4 1.5 84
2019-10-08 22:00:00 19.1 9 Norte 13 Nordeste 0 1001.2 1.5 85
2019-10-08 21:00:00 20.2 8 Nordeste 17 Sur 0 1000.5 1 81
2019-10-08 20:00:00 21.7 13 Sur 24 Sur 0 999.9 0.3 75
2019-10-08 19:00:00 23.4 18 Sur 32 Sur 0 999.7 -0.3 69
2019-10-08 18:00:00 25.1 24 Sur 33 Sur 0 999.5 -1 61
2019-10-08 17:00:00 26.1 28 Sur 35 Sur 0 999.6 -1.8 54
2019-10-08 16:00:00 27.5 21 Sur 33 Sur 0 1000 -2.6 48
2019-10-08 15:00:00 27.2 22 Sur 32 Sur 0 1000.5 -2.9 49
2019-10-08 14:00:00 26.9 18 Sur 30 Sur 0 1001.4 -2.4 47
2019-10-08 13:00:00 25.7 20 Sur 32 Sur 0 1002.6 -1.4 51
2019-10-08 12:00:00 22.9 14 Sur 21 Sur 0 1003.4 -0.3 60
2019-10-08 11:00:00 19.6 10 Sudoeste 15 Sur 0 1003.8 0.3 65
2019-10-08 10:00:00 16.8 2 Este 8 Nordeste 0 1004 0.6 74
2019-10-08 09:00:00 12.9 0 Calma 5 Este 0 1003.7 0.5 90
2019-10-08 08:00:00 10.3 0 Calma 5 Sudoeste 0 1003.5 0.3 95
2019-10-08 07:00:00 10.3 3 Sur 8 Nordeste 0 1003.4 0 96
2019-10-08 06:00:00 10.6 2 Oeste 9 Norte 0 1003.2 -0.2 94
2019-10-08 05:00:00 11.1 3 Sudoeste 11 Norte 0 1003.2 0 94
2019-10-08 04:00:00 11.7 3 Este 9 Nordeste 0 1003.4 0.1 94
2019-10-08 03:00:00 11.6 4 Este 5 Nordeste 0 1003.4 -0.1 91
2019-10-08 02:00:00 12.5 3 Este 11 Noroeste 0 1003.2 0.1 89
2019-10-08 01:00:00 13.1 0 Calma 8 Noroeste 0 1003.3 0.8 91
2019-10-08 00:00:00 14.1 0 Calma 8 Oeste 0 1003.5 1.7 88
2019-10-07 23:00:00 15.2 0 Calma 5 Sudeste 0 1003.1 2.1 86
2019-10-07 22:00:00 15.7 0 Calma 8 Sudoeste 0 1002.5 2.5 76
2019-10-07 21:00:00 17.7 6 Sudoeste 17 Sur 0 1001.8 2.1 70
2019-10-07 20:00:00 19.4 10 Sur 15 Sur 0 1001 1.8 57
2019-10-07 19:00:00 22.7 10 Sur 17 Sur 0 1000 0.7 37
2019-10-07 18:00:00 23.9 13 Sur 17 Sur 0 999.7 0.3 35
2019-10-07 17:00:00 26.1 5 Sudoeste 15 Oeste 0 999.2 -0.7 25
2019-10-07 16:00:00 25.2 9 Sudoeste 15 Sudoeste 0 999.3 -1 27
2019-10-07 15:00:00 24.3 3 Noroeste 21 Sudoeste 0 999.4 -0.6 28
2019-10-07 14:00:00 23.6 11 Sur 17 Sur 0 999.9 -0.5 37
2019-10-07 13:00:00 22.3 9 Sudeste 17 Nordeste 0 1000.3 0 42
2019-10-07 12:00:00 21.3 8 Norte 18 Nordeste 0 1000 0.1 43
2019-10-07 11:00:00 18.8 11 Nordeste 17 Nordeste 0 1000.4 1.2 48
2019-10-07 10:00:00 16.5 4 Oeste 13 Norte 0 1000.3 1.8 63
2019-10-07 09:00:00 16 6 Nordeste 21 Nordeste 0 999.9 1.5 58
2019-10-07 08:00:00 12.8 10 Norte 15 Nordeste 0 999.2 0.8 83
2019-10-07 07:00:00 13.8 5 Nordeste 21 Nordeste 0 998.5 -0.2 71
2019-10-07 06:00:00 15 16 Nordeste 32 Nordeste 0 998.4 -1.6 65
2019-10-07 05:00:00 14.8 23 Nordeste 33 Nordeste 0 998.4 -1.7 67
2019-10-07 04:00:00 15.6 9 Nordeste 15 Nordeste 0 998.7 -2 87
2019-10-07 03:00:00 16.9 12 Nordeste 17 Nordeste 0 1000 -1.1 94
2019-10-07 02:00:00 17.7 8 Norte 11 Norte 0 1000.1 -0.7 87
2019-10-07 01:00:00 17.6 6 Nordeste 13 Norte 0 1000.7 -0.2 90
2019-10-07 00:00:00 18.2 5 Nordeste 9 Nordeste 0 1001.1 0.3 84
2019-10-06 23:00:00 18.6 0 Calma 5 Este 0 1000.8 0 80
2019-10-06 22:00:00 18.7 4 Sudeste 11 Sur 0 1000.9 0.3 78
2019-10-06 21:00:00 19.1 6 Sudeste 13 Sudeste 0 1000.8 0.3 76
2019-10-06 20:00:00 19.6 8 Sur 17 Sur 0 1000.8 0.7 77
2019-10-06 19:00:00 20 12 Sur 22 Sur 0 1000.6 0.2 76
2019-10-06 18:00:00 20.7 14 Sur 22 Sur 0 1000.5 -0.5 73
2019-10-06 17:00:00 21.3 18 Sur 24 Sur 0 1000.1 -1 70
2019-10-06 16:00:00 22.1 16 Sur 26 Sur 0 1000.4 -1.6 66
2019-10-06 15:00:00 22 16 Sur 28 Sudoeste 0 1001 -1.3 64
2019-10-06 14:00:00 22.4 21 Sudoeste 30 Sudoeste 0 1001.1 -1.6 59
2019-10-06 13:00:00 22.5 13 Sur 21 Sur 0 1002 -0.7 56
2019-10-06 12:00:00 22.8 6 Sudeste 13 Sur 0 1002.3 0.1 52
2019-10-06 11:00:00 20.1 6 Este 13 Nordeste 0 1002.7 1 59
2019-10-06 10:00:00 17.7 5 Oeste 9 Oeste 0 1002.7 1.5 73
2019-10-06 09:00:00 16.3 5 Noroeste 9 Norte 0 1002.2 1 80
2019-10-06 08:00:00 15 5 Nordeste 8 Nordeste 0 1001.7 0.5 87
2019-10-06 07:00:00 14.9 0 Calma 9 Noroeste 0 1001.2 0 84
2019-10-06 06:00:00 14.9 5 Noroeste 8 Oeste 0 1001.2 -0.4 83
2019-10-06 05:00:00 16.1 5 Norte 9 Norte 0 1001.2 -0.2 80
2019-10-06 04:00:00 16 5 Norte 9 Norte 0 1001.2 -0.4 84
2019-10-06 03:00:00 15.5 0 Calma 5 Noroeste 0 1001.6 0.4 91
2019-10-06 02:00:00 15 0 Calma 5 Este 0 1001.4 -0.1 93
2019-10-06 01:00:00 13.7 5 Norte 5 Norte 0 1001.6 0.5 93
2019-10-06 00:00:00 15.5 0 Calma 5 Sur 0 1001.2 0.4 90
2019-10-05 23:00:00 16.4 4 Nordeste 8 Nordeste 0 1001.5 0.9 87
2019-10-05 22:00:00 16.7 0 Calma -- -- 0 1001.1 0.7 82
2019-10-05 21:00:00 18.4 4 Sudoeste 15 Sudoeste 0 1000.8 0.9 79
2019-10-05 20:00:00 19.4 11 Sur 21 Sur 0 1000.6 1.2 74
2019-10-05 19:00:00 20 14 Sur 26 Sur 0 1000.4 1 72
2019-10-05 18:00:00 21.6 16 Sur 28 Sur 0 999.9 0.5 67
2019-10-05 17:00:00 22 19 Sur 28 Sur 0 999.4 -0.3 65
2019-10-05 16:00:00 23 17 Sudoeste 26 Sur 0 999.4 -1 61
2019-10-05 15:00:00 23.3 12 Sur 21 Sur 0 999.4 -- 58
2019-10-05 14:00:00 24 6 Sur 17 Sur 0 999.7 -- 54
2019-10-05 13:00:00 22.6 6 Sur 15 Sudoeste 0 1000.4 -- 57
2019-10-05 12:00:00 -- -- -- -- -- -- -- -- --
2019-10-05 11:00:00 -- -- -- -- -- -- -- -- --
2019-10-05 10:00:00 -- -- -- -- -- -- -- -- --
2019-10-05 09:00:00 17.2 12 Nordeste 18 Nordeste 0 1000 0.9 76
2019-10-05 08:00:00 16.5 9 Nordeste 18 Nordeste 0 999.4 0.6 87
2019-10-05 07:00:00 16.2 9 Nordeste 17 Norte 0 999.3 0.5 93
2019-10-05 06:00:00 14.2 8 Nordeste 11 Norte 0 999.1 -0.1 96
2019-10-05 05:00:00 13.8 0 Calma 11 Sudoeste 0 998.8 -0.2 94
2019-10-05 04:00:00 14.2 7 Sudoeste 8 Sudoeste 0 998.8 -1.2 93
2019-10-05 03:00:00 15.2 0 Calma 13 Sudoeste 0 999.2 -0.9 91
2019-10-05 02:00:00 16.3 10 Sudoeste 15 Sudoeste 0 999 -0.8 89
2019-10-05 01:00:00 17.9 5 Norte 9 Norte 0 1000 0.4 87
2019-10-05 00:00:00 18.3 4 Norte 15 Norte 0 1000.1 0.7 88
2019-10-04 23:00:00 17.7 10 Norte 15 Norte 0 999.8 0.9 80
2019-10-04 22:00:00 16.6 8 Nordeste 11 Norte 0 999.6 1.3 83
2019-10-04 21:00:00 18.5 0 Calma 9 Sudoeste 0 999.4 1.6 76
2019-10-04 20:00:00 19.9 8 Sur 13 Sur 0 998.9 1.1 70
2019-10-04 19:00:00 22.8 10 Sudeste 18 Este 0 998.3 -0.2 49
2019-10-04 18:00:00 24.6 12 Sur 28 Sur 0 997.8 -1.5 50
2019-10-04 17:00:00 25 21 Sur 35 Sur 0 997.8 -2.2 53
2019-10-04 16:00:00 25.2 27 Sur 37 Sur 0 998.5 -2.4 55
2019-10-04 15:00:00 25.5 25 Sur 35 Sur 0 999.3 -1.9 55
2019-10-04 14:00:00 24.7 19 Sur 32 Sur 0 1000 -1.7 57
2019-10-04 13:00:00 24.2 17 Sur 28 Sur 0 1000.9 -0.9 59
2019-10-04 12:00:00 21.9 10 Sur 17 Sur 0 1001.2 -0.5 68
2019-10-04 11:00:00 19.9 9 Sur 13 Sur 0 1001.7 0.3 71
2019-10-04 10:00:00 16.9 0 Calma 8 Sur 0 1001.8 0.7 76
2019-10-04 09:00:00 14 3 Este 5 Nordeste 0 1001.7 0.8 88
2019-10-04 08:00:00 13.7 4 Este 9 Noroeste 0 1001.4 0.8 91
2019-10-04 07:00:00 12.9 3 Nordeste 8 Nordeste 0 1001.1 0.6 92
2019-10-04 06:00:00 13 5 Noroeste 9 Noroeste 0 1000.9 -0.1 94
2019-10-04 05:00:00 11.4 4 Nordeste 11 Noroeste 0 1000.6 -0.5 97
2019-10-04 04:00:00 11.5 3 Sudoeste 5 Sudoeste 0 1000.5 -0.8 94
2019-10-04 03:00:00 12.1 0 Calma 5 Sudoeste 0 1001 -0.6 94
2019-10-04 02:00:00 12.1 0 Calma -- -- 0 1001.1 -0.7 91
2019-10-04 01:00:00 13.5 0 Calma 5 Norte 0 1001.3 0.1 93
2019-10-04 00:00:00 15 7 Noroeste -- -- 0 1001.6 0.8 90
2019-10-03 23:00:00 15.4 3 Sudoeste 8 Oeste 0 1001.8 1.7 90
2019-10-03 22:00:00 16.1 4 Oeste 8 Sudoeste 0 1001.2 1.8 84
2019-10-03 21:00:00 17.5 0 Calma 15 Sudeste 0 1000.8 1.9 81
2019-10-03 20:00:00 19 9 Sudeste 17 Sudeste 0 1000.1 1.2 75
2019-10-03 19:00:00 21.7 13 Sur 21 Sur 0 999.4 0.5 55
2019-10-03 18:00:00 23.5 14 Sur 24 Sur 0 998.9 -0.2 46
2019-10-03 17:00:00 25.4 12 Sur 24 Sur 0 998.9 -0.6 42
2019-10-03 16:00:00 26 12 Sur 24 Sudoeste 0 998.9 -1.1 39
2019-10-03 15:00:00 25.5 12 Sur 18 Sur 0 999.1 -1.4 37
2019-10-03 14:00:00 24.3 5 Sur 13 Sudoeste 0 999.5 -0.9 41
2019-10-03 13:00:00 22.9 5 Sur 13 Sur 0 1000 -0.1 46
2019-10-03 12:00:00 21.2 9 Nordeste 17 Nordeste 0 1000.5 0.5 51
2019-10-03 11:00:00 18.5 10 Nordeste 15 Nordeste 0 1000.4 0.3 64
2019-10-03 10:00:00 16.7 12 Nordeste 15 Nordeste 0 1000.1 0.4 70
2019-10-03 09:00:00 14.8 9 Nordeste 13 Norte 0 1000 0.3 81
2019-10-03 08:00:00 14.8 7 Norte 18 Norte 0 1000.1 0.5 79
2019-10-03 07:00:00 14.3 9 Norte 13 Norte 0 999.7 -0.1 81
2019-10-03 06:00:00 14.4 8 Noroeste 11 Noroeste 0 999.7 -0.6 80
2019-10-03 05:00:00 14.8 6 Nordeste 13 Norte 0 999.6 -0.9 77
2019-10-03 04:00:00 16.3 8 Norte 17 Nordeste 0 999.8 -0.5 70
2019-10-03 03:00:00 16.5 11 Nordeste 22 Nordeste 0 1000.3 -0.1 69
2019-10-03 02:00:00 17.5 6 Nordeste 11 Nordeste 0 1000.5 0.4 82
2019-10-03 01:00:00 17.7 0 Calma 8 Nordeste 0 1000.3 1.1 86
2019-10-03 00:00:00 17.9 5 Nordeste 11 Nordeste 0 1000.4 1.6 87
2019-10-02 23:00:00 17.5 8 Nordeste 17 Este 0 1000.1 2 89
2019-10-02 22:00:00 17.6 7 Oeste 11 Oeste 0 999.2 1.7 86
2019-10-02 21:00:00 18.7 6 Sudoeste 15 Sudoeste 0 998.8 1.8 83
2019-10-02 20:00:00 19.6 9 Sur 22 Sur 0 998.1 1.4 77
2019-10-02 19:00:00 21.4 17 Sur 26 Sur 0 997.5 1.2 69
2019-10-02 18:00:00 23.8 17 Sur 30 Sur 0 997 0.7 59
2019-10-02 17:00:00 24.9 21 Sur 33 Sur 0 996.7 0.2 55
2019-10-02 16:00:00 25.7 16 Sur 32 Sur 0 996.3 -0.5 52
2019-10-02 15:00:00 25.5 14 Sudeste 26 Sudeste 0 996.3 -0.4 48
2019-10-02 14:00:00 24.9 17 Este 30 Este 0 996.5 0.1 49
2019-10-02 13:00:00 25.3 10 Este 21 Sudeste 0 996.8 0.7 44
2019-10-02 12:00:00 23.8 10 Sudeste 21 Este 0 996.7 1 54
2019-10-02 11:00:00 21.7 9 Sur 13 Sur 0 996.4 0.9 62
2019-10-02 10:00:00 20 0 Calma 9 Sur 0 996.1 1 72
2019-10-02 09:00:00 16 2 Nordeste 13 Nordeste 0 995.7 1 89
2019-10-02 08:00:00 13.8 3 Nordeste 15 Oeste 0 995.5 1 95
2019-10-02 07:00:00 14.3 5 Nordeste 9 Nordeste 0 995.1 0.2 93
2019-10-02 06:00:00 14.6 0 Calma 11 Nordeste 0 994.7 -0.4 92
2019-10-02 05:00:00 15.8 2 Nordeste 17 Nordeste 0 994.5 -0.8 86
2019-10-02 04:00:00 16 5 Noroeste 11 Norte 0 994.9 0 84
2019-10-02 03:00:00 16.7 4 Noroeste 11 Este 0 995.1 -0.2 81
2019-10-02 02:00:00 17 6 Nordeste 17 Nordeste 0 995.3 0.2 78
2019-10-02 01:00:00 18.6 17 Nordeste 28 Nordeste 0 994.9 -0.1 72
2019-10-02 00:00:00 19.4 14 Nordeste 22 Este 0 995.3 1.3 75
2019-10-01 23:00:00 20.5 14 Nordeste 21 Este 0 995.1 1.8 75
2019-10-01 22:00:00 21.4 9 Norte 15 Norte 0 995 2 78
2019-10-01 21:00:00 21.9 9 Norte 24 Nordeste 0 994 1.6 76
2019-10-01 20:00:00 23.6 18 Nordeste 35 Nordeste 0 993.3 1 67
2019-10-01 19:00:00 24.7 8 Este 17 Sur 0 993 0.4 72
2019-10-01 18:00:00 25.6 14 Sur 18 Sur 0 992.4 -0.8 69
2019-10-01 17:00:00 26.6 13 Sudeste 28 Sur 0 992.3 -1.7 66
2019-10-01 16:00:00 27.7 18 Sur 26 Sur 0 992.6 -2.4 61
2019-10-01 15:00:00 28.4 15 Sur 28 Sur 0 993.2 -2.6 56
2019-10-01 14:00:00 28.2 12 Sur 21 Sur 0 994 -2.1 49
2019-10-01 13:00:00 26.3 10 Sur 15 Sur 0 995 -1.2 55
2019-10-01 12:00:00 23.9 9 Sur 15 Sur 0 995.8 -0.4 64
2019-10-01 11:00:00 21.5 5 Sur 9 Sur 0 996.1 -0.1 74
2019-10-01 10:00:00 18.6 3 Sur 8 Sur 0 996.2 0 87
2019-10-01 09:00:00 14.8 0 Calma 4 Noroeste 0 996.2 0 99
2019-10-01 08:00:00 13.5 0 Calma 5 Oeste 0 996.2 -0.4 99
2019-10-01 07:00:00 13.6 0 Calma -- -- 0 996.2 -0.9 99
2019-10-01 06:00:00 13.4 0 Calma 8 Nordeste 0 996.2 -1.7 97
2019-10-01 05:00:00 13.8 0 Calma 8 Nordeste 0 996.6 -1.5 96
2019-10-01 04:00:00 14.4 0 Calma 5 Nordeste 0 997.1 -1.6 96
2019-10-01 03:00:00 14.8 0 Calma 5 Sur 0 997.9 -1.1 94
2019-10-01 02:00:00 15.4 0 Calma 9 Sur 0 998.1 -1.1 95
2019-10-01 01:00:00 15.8 7 Oeste -- -- 0 998.7 -0.4 94
2019-10-01 00:00:00 16.7 6 Oeste 8 Oeste 0 999 0 89
2019-09-30 23:00:00 18.2 0 Calma 15 Sur 0 999.2 0.5 85
2019-09-30 22:00:00 19.6 10 Sur 18 Sur 0 999.1 0.3 84
2019-09-30 21:00:00 20.3 14 Sur 24 Sur 0 999 0.6 81
2019-09-30 20:00:00 21.4 16 Sur 28 Sur 0 998.7 0 76
2019-09-30 19:00:00 23.4 20 Sur 35 Sur 0 998.8 -0.7 65
2019-09-30 18:00:00 25.9 25 Sur 39 Sur 0 998.4 -1.4 56
2019-09-30 17:00:00 27.6 26 Sur 37 Sur 0 998.7 -1.9 50
2019-09-30 16:00:00 28.2 27 Sur 37 Sur 0 999.5 -2.1 46
2019-09-30 15:00:00 29.1 21 Sur 35 Sur 0 999.8 -2.3 43
2019-09-30 14:00:00 28.5 22 Sur 32 Sudoeste 0 1000.6 -1.6 44
2019-09-30 13:00:00 27.8 19 Sur 30 Sudoeste 0 1001.6 -0.4 49
2019-09-30 12:00:00 25.3 9 Sur 17 Sur 0 1002.1 0.6 61
2019-09-30 11:00:00 23.2 8 Sur 13 Sur 0 1002.2 1 62
2019-09-30 10:00:00 20.1 0 Calma 9 Nordeste 0 1002 1.1 70
2019-09-30 09:00:00 16.1 4 Nordeste 8 Nordeste 0 1001.5 0.7 87
2019-09-30 08:00:00 13.8 0 Calma 5 Oeste 0 1001.2 0.3 96
2019-09-30 07:00:00 13.9 0 Calma 8 Nordeste 0 1000.9 0 95
2019-09-30 06:00:00 14.3 2 Nordeste 11 Oeste 0 1000.8 -0.2 90
2019-09-30 05:00:00 14.3 3 Nordeste 11 Nordeste 0 1000.9 -0.2 93
2019-09-30 04:00:00 15.7 4 Noroeste 13 Norte 0 1000.9 0.1 86
2019-09-30 03:00:00 16.7 9 Norte 18 Norte 0 1001 0.3 91
2019-09-30 02:00:00 16.6 6 Noroeste 13 Nordeste 0 1001.1 0.8 93
2019-09-30 01:00:00 16.7 10 Nordeste 11 Nordeste 0 1000.8 0.8 90
2019-09-30 00:00:00 18.4 8 Oeste 11 Norte 0 1000.7 1.4 86
2019-09-29 23:00:00 20 9 Norte 15 Norte 0 1000.3 1.4 82
2019-09-29 22:00:00 20.4 11 Norte 13 Norte 0 1000 1.8 84
2019-09-29 21:00:00 21.4 8 Norte 22 Norte 0 999.3 1.5 81
2019-09-29 20:00:00 23.4 17 Norte 30 Nordeste 0 998.9 1.1 75
2019-09-29 19:00:00 25.6 19 Norte 30 Norte 0 998.2 0.2 70
2019-09-29 18:00:00 29.3 10 Sur 18 Sudeste 0 997.8 -0.9 56
2019-09-29 17:00:00 30.2 11 Sudeste 21 Sudeste 0 997.8 -1.7 52
2019-09-29 16:00:00 30.5 12 Sur 22 Sur 0 998 -2.2 49
2019-09-29 15:00:00 30.6 8 Sur 22 Sur 0 998.7 -2 44
2019-09-29 14:00:00 29.4 10 Sur 21 Sur 0 999.5 -1.5 43
2019-09-29 13:00:00 27.8 5 Sur 13 Sudoeste 0 1000.2 -0.8 50
2019-09-29 12:00:00 25.1 6 Sur 13 Sur 0 1000.7 0.2 57
2019-09-29 11:00:00 22.4 5 Este 9 Norte 0 1001 0.3 68
2019-09-29 10:00:00 18.8 5 Este 9 Este 0 1001 0.4 83
2019-09-29 09:00:00 15.9 0 Calma 2 Nordeste 0 1000.5 -0.3 96
2019-09-29 08:00:00 12.5 0 Calma 8 Nordeste 0 1000.7 -0.5 98
2019-09-29 07:00:00 12.7 0 Calma -- -- 0 1000.6 -1.2 98
2019-09-29 06:00:00 12.9 0 Calma -- -- 0 1000.8 -1.6 98
2019-09-29 05:00:00 13.2 0 Calma -- -- 0 1001.2 -1.3 97
2019-09-29 04:00:00 13.2 0 Calma 8 Norte 0 1001.8 -1.2 96
2019-09-29 03:00:00 13.5 0 Calma 8 Norte 0 1002.4 -1.1 95
2019-09-29 02:00:00 14.5 0 Calma 5 Noroeste 0 1002.5 -1.4 92
2019-09-29 01:00:00 15.3 3 Nordeste 8 Noroeste 0 1003 -0.9 93
2019-09-29 00:00:00 16 0 Calma 5 Oeste 0 1003.5 -0.4 90
2019-09-28 23:00:00 17 0 Calma 8 Nordeste 0 1003.9 0.3 86
2019-09-28 22:00:00 18.1 4 Nordeste 13 Este 0 1003.9 0.4 85
2019-09-28 21:00:00 18 7 Este 13 Este 0 1003.9 0.7 79
2019-09-28 20:00:00 20.4 9 Sur 22 Sur 0 1003.6 0.4 68
2019-09-28 19:00:00 22.1 15 Sur 33 Sur 0 1003.5 0.1 57
2019-09-28 18:00:00 24 24 Sur 39 Sur 0 1003.2 -0.9 51
2019-09-28 17:00:00 25.8 30 Sur 39 Sur 0 1003.2 -1.5 44
2019-09-28 16:00:00 27 30 Sur 39 Sur 0 1003.4 -2.2 43
2019-09-28 15:00:00 27.6 23 Sur 41 Sur 0 1004.1 -1.7 41
2019-09-28 14:00:00 27.3 15 Sur 24 Sur 0 1004.7 -1.3 44
2019-09-28 13:00:00 26.8 13 Sudeste 24 Sur 0 1005.6 0 47
2019-09-28 12:00:00 24.8 9 Sur 18 Sur 0 1005.8 0.6 53
2019-09-28 11:00:00 23.1 5 Sur 11 Sur 0 1006 1.2 60
2019-09-28 10:00:00 20.4 2 Nordeste 8 Norte 0 1005.6 1.2 77
2019-09-28 09:00:00 18.8 0 Calma 11 Norte 0 1005.2 1.2 86
2019-09-28 08:00:00 17.4 6 Norte 11 Norte 0 1004.8 0.8 95
2019-09-28 07:00:00 17.6 4 Norte 9 Norte 0 1004.4 0.5 95
2019-09-28 06:00:00 16.9 7 Nordeste 9 Nordeste 0 1004 -0.1 93
2019-09-28 05:00:00 16.7 7 Noroeste 11 Noroeste 0 1004 -0.1 92
2019-09-28 04:00:00 18.8 6 Norte 11 Norte 0 1003.9 0.2 84
2019-09-28 03:00:00 18.6 7 Norte 11 Norte 0 1004.1 0.6 87
2019-09-28 02:00:00 19.3 4 Norte 9 Norte 0 1004.1 0.9 85
2019-09-28 01:00:00 19.9 0 Calma 8 Norte 0 1003.7 0.8 88
2019-09-28 00:00:00 20.1 0 Calma 11 Norte 0 1003.5 1.2 89
2019-09-27 23:00:00 20.6 8 Norte 17 Norte 0 1003.2 1.4 92
2019-09-27 22:00:00 21.2 13 Norte 21 Norte 0 1002.9 1.6 91
2019-09-27 21:00:00 21.9 13 Norte 22 Norte 0 1002.3 1.7 83
2019-09-27 20:00:00 22.6 16 Norte 24 Norte 0 1001.8 1.4 81
2019-09-27 19:00:00 23.1 13 Norte 22 Sur 0 1001.3 0.8 79
2019-09-27 18:00:00 25.5 15 Sur 24 Sur 0 1000.6 -0.4 70
2019-09-27 17:00:00 27.6 18 Sur 30 Sur 0 1000.4 -1.1 63
2019-09-27 16:00:00 27.7 17 Sur 28 Sur 0 1000.5 -1.3 64
2019-09-27 15:00:00 27.4 17 Sur 30 Sudeste 0 1001 -1.2 65
2019-09-27 14:00:00 27.9 15 Sur 26 Sur 0 1001.5 -1.3 58
2019-09-27 13:00:00 26.8 10 Sur 18 Sur 0 1001.8 -1.1 60
2019-09-27 12:00:00 25.3 5 Sur 13 Sudoeste 0 1002.2 -0.5 62
2019-09-27 11:00:00 23.5 3 Sur 9 Sur 0 1002.8 0.4 66
2019-09-27 10:00:00 20.5 0 Calma 5 Sur 0 1002.9 0.8 78
2019-09-27 09:00:00 17.9 0 Calma 8 Este 0 1002.7 0.7 91
2019-09-27 08:00:00 14.6 0 Calma 5 Oeste 0 1002.4 0.2 98
2019-09-27 07:00:00 14.7 0 Calma 11 Nordeste 0 1002.1 -0.1 98
2019-09-27 06:00:00 14.9 0 Calma 5 Oeste 0 1002 -0.7 96
2019-09-27 05:00:00 15.5 0 Calma 9 Noroeste 0 1002.2 -0.6 96
2019-09-27 04:00:00 16.1 0 Calma 9 Oeste 0 1002.2 -0.6 95
2019-09-27 03:00:00 16.4 0 Calma 4 Este 0 1002.7 -0.2 94
2019-09-27 02:00:00 16.9 3 Sudeste 5 Sudoeste 0 1002.8 0 94
2019-09-27 01:00:00 17.8 5 Noroeste 9 Norte 0 1002.8 0.3 91
2019-09-27 00:00:00 19.3 8 Norte 13 Norte 0 1002.9 1 85
2019-09-26 23:00:00 19.5 9 Norte 13 Norte 0 1002.8 1.4 85
2019-09-26 22:00:00 19.4 7 Nordeste 13 Nordeste 0 1002.5 1.3 81
2019-09-26 21:00:00 20 7 Nordeste 9 Nordeste 0 1001.9 0.9 77
2019-09-26 20:00:00 22.3 8 Sudeste 17 Sur 0 1001.4 0.2 65
2019-09-26 19:00:00 23.9 11 Sur 22 Sur 0 1001.2 -0.4 65
2019-09-26 18:00:00 24.8 19 Sur 28 Sur 0 1001 -0.8 64
2019-09-26 17:00:00 25.7 17 Sur 28 Sur 0 1001.2 -1.3 61
2019-09-26 16:00:00 26.3 20 Sur 28 Sur 0 1001.6 -1.5 60
2019-09-26 15:00:00 26 15 Sur 26 Sur 0 1001.8 -1.9 59
2019-09-26 14:00:00 26.2 15 Sur 26 Sur 0 1002.5 -1.4 58
2019-09-26 13:00:00 25.4 14 Sur 26 Sur 0 1003.1 -0.5 58
2019-09-26 12:00:00 24.1 9 Sur 17 Sur 0 1003.7 0.7 59
2019-09-26 11:00:00 22 0 Calma 8 Sur 0 1003.9 1.1 66
2019-09-26 10:00:00 19.3 3 Sur 9 Sudoeste 0 1003.6 1.4 78
2019-09-26 09:00:00 16.7 0 Calma 11 Nordeste 0 1003 1 91
2019-09-26 08:00:00 13.5 3 Nordeste 8 Nordeste 0 1002.8 0.8 96
2019-09-26 07:00:00 13.6 7 Nordeste 8 Norte 0 1002.2 0.3 95
2019-09-26 06:00:00 14.2 5 Oeste 11 Oeste 0 1002 0.1 95
2019-09-26 05:00:00 14.7 3 Sudoeste 11 Nordeste 0 1002 0.5 93
2019-09-26 04:00:00 15.8 8 Norte 13 Norte 0 1001.9 0.3 90
2019-09-26 03:00:00 15.9 0 Calma 11 Sudoeste 0 1001.9 0.3 91
2019-09-26 02:00:00 16 8 Oeste 9 Sudoeste 0 1001.5 0 88
2019-09-26 01:00:00 16.7 4 Oeste 8 Oeste 0 1001.6 0.4 86
2019-09-26 00:00:00 17.4 3 Sudoeste 11 Sudoeste 0 1001.6 0.9 84
2019-09-25 23:00:00 17.8 6 Sudoeste 15 Sur 0 1001.5 1.2 81
2019-09-25 22:00:00 18.5 9 Sur 13 Sur 0 1001.2 1.3 75
2019-09-25 21:00:00 19.1 10 Sudoeste 13 Sudoeste 0 1000.7 1.5 69
2019-09-25 20:00:00 19.8 11 Sur 17 Sur 0 1000.3 1.3 66
2019-09-25 19:00:00 21.8 8 Sudeste 15 Sudeste 0 999.9 1.1 60
2019-09-25 18:00:00 22.5 12 Sur 18 Sur 0 999.2 0.1 56
2019-09-25 17:00:00 23.2 11 Sur 21 Sur 0 999 -0.7 53
2019-09-25 16:00:00 24.3 13 Sur 26 Sur 0 998.8 -1.3 50
2019-09-25 15:00:00 25.1 5 Sudeste 17 Sudeste 0 999.1 -1.2 46
2019-09-25 14:00:00 24.1 9 Este 17 Este 0 999.7 -0.5 49
2019-09-25 13:00:00 23.6 9 Este 21 Nordeste 0 1000.1 0.4 51
2019-09-25 12:00:00 22.8 8 Nordeste 18 Nordeste 0 1000.3 1.1 54
2019-09-25 11:00:00 20.6 10 Nordeste 18 Este 0 1000.2 1.4 63
2019-09-25 10:00:00 20.3 10 Nordeste 15 Nordeste 0 999.7 1.3 65
2019-09-25 09:00:00 17.6 7 Norte 13 Norte 0 999.2 1 75
2019-09-25 08:00:00 15.7 7 Norte 11 Norte 0 998.8 0.4 85
2019-09-25 07:00:00 16.3 7 Norte 11 Norte 0 998.4 -0.1 84
2019-09-25 06:00:00 16.3 6 Norte 13 Norte 0 998.2 -0.5 84
2019-09-25 05:00:00 16.5 5 Noroeste 15 Norte 0 998.4 -0.3 83
2019-09-25 04:00:00 17.4 12 Nordeste 15 Nordeste 0 998.5 -0.3 81
2019-09-25 03:00:00 16.6 14 Norte 21 Nordeste 0 998.7 -0.5 81
2019-09-25 02:00:00 17.4 5 Nordeste 11 Norte 0 998.7 -0.5 78
2019-09-25 01:00:00 17.5 4 Noroeste 11 Noroeste 0 998.8 -0.4 76
2019-09-25 00:00:00 18.7 5 Noroeste 9 Norte 0 999.2 0.3 70
2019-09-24 23:00:00 18.8 2 Nordeste 13 Norte 0 999.2 1.1 77
2019-09-24 22:00:00 20.1 6 Norte 17 Norte 0 999.2 1.6 74
2019-09-24 21:00:00 21.1 4 Noroeste 13 Este 0 998.9 1.7 69
2019-09-24 20:00:00 23.7 8 Este 15 Este 0 998.1 1.1 60
2019-09-24 19:00:00 26.7 10 Sudeste 21 Sudeste 0 997.6 0.8 55
2019-09-24 18:00:00 28 14 Sudeste 28 Sudeste 0 997.2 0 46
2019-09-24 17:00:00 28.9 21 Sudeste 30 Sudeste 0 997 -1 47
2019-09-24 16:00:00 31.2 14 Sudeste 24 Sudeste 0 996.8 -1.6 32
2019-09-24 15:00:00 30.5 9 Sudeste 18 Nordeste 0 997.2 -1.4 31
2019-09-24 14:00:00 29 6 Este 21 Nordeste 0 998 -0.5 36
2019-09-24 13:00:00 27.7 15 Nordeste 26 Nordeste 0 998.4 0.2 41
2019-09-24 12:00:00 25.8 10 Nordeste 22 Este 0 998.6 0.4 44
2019-09-24 11:00:00 22.8 4 Este 15 Nordeste 0 998.5 -0.2 54
2019-09-24 10:00:00 19.6 3 Sur 9 Sur 0 998.2 -1 72
2019-09-24 09:00:00 15.9 2 Sur 13 Sur 0 998.2 -1.2 89
2019-09-24 08:00:00 12.7 4 Sudoeste 11 Sur 0 998.7 -1.1 94
2019-09-24 07:00:00 13.3 0 Calma 5 Noroeste 0 999.2 -1.3 94
2019-09-24 06:00:00 13.3 3 Oeste 8 Oeste 0 999.4 -1.8 94
2019-09-24 05:00:00 14.4 5 Norte 9 Noroeste 0 999.8 -1.8 90
2019-09-24 04:00:00 14.2 5 Oeste 8 Oeste 0 1000.5 -1.3 95
2019-09-24 03:00:00 14.9 5 Nordeste 5 Nordeste 0 1001.2 -0.9 92
2019-09-24 02:00:00 15.3 4 Este 8 Este 0 1001.6 -0.8 92
2019-09-24 01:00:00 15.8 6 Oeste 9 Oeste 0 1001.8 -0.4 92
2019-09-24 00:00:00 16.8 6 Oeste 11 Sudoeste 0 1002.1 0.1 90
2019-09-23 23:00:00 18.1 7 Noroeste 11 Norte 0 1002.4 0.8 85
2019-09-23 22:00:00 18.3 6 Noroeste 8 Noroeste 0 1002.2 1.1 83
2019-09-23 21:00:00 19.7 4 Sudoeste 18 Sudoeste 0 1002 1 77
2019-09-23 20:00:00 20.7 12 Sur 21 Sur 0 1001.6 0.5 75
2019-09-23 19:00:00 21.8 14 Sur 33 Sur 0 1001.1 -0.2 70
2019-09-23 18:00:00 22 26 Sur 37 Sur 0 1001 -0.6 68
2019-09-23 17:00:00 23.9 25 Sur 35 Sur 0 1001.1 -0.7 62
2019-09-23 16:00:00 24.5 25 Sur 35 Sur 0 1001.3 -1.2 60
2019-09-23 15:00:00 25.6 15 Sur 26 Sudeste 0 1001.6 -1.5 51
2019-09-23 14:00:00 24.8 5 Noroeste 21 Sur 0 1001.8 -1.7 48
2019-09-23 13:00:00 24.5 5 Sur 15 Sur 0 1002.5 -0.9 52
2019-09-23 12:00:00 23.6 9 Sur 15 Sur 0 1003.1 0 55
2019-09-23 11:00:00 21.6 3 Sur 9 Sur 0 1003.5 0.9 65
2019-09-23 10:00:00 19.7 0 Calma 8 Sudeste 0 1003.4 1.4 75
2019-09-23 09:00:00 17.4 2 Este 9 Noroeste 0 1003.1 1.6 84
2019-09-23 08:00:00 15.3 7 Noroeste 11 Noroeste 0 1002.6 1.4 87
2019-09-23 07:00:00 15.6 0 Calma 8 Oeste 0 1002 0.9 85
2019-09-23 06:00:00 16.9 7 Noroeste 11 Noroeste 0 1001.5 0.6 79
2019-09-23 05:00:00 17 8 Noroeste 11 Noroeste 0 1001.2 0.5 79
2019-09-23 04:00:00 16.9 6 Noroeste 11 Noroeste 0 1001.1 0.7 79
2019-09-23 03:00:00 17.2 4 Norte 8 Norte 0 1000.9 1 78
2019-09-23 02:00:00 17.3 2 Noroeste 11 Nordeste 0 1000.7 1.4 77
2019-09-23 01:00:00 17.5 9 Nordeste 18 Nordeste 0 1000.4 1.7 74
2019-09-23 00:00:00 18.4 12 Nordeste 22 Nordeste 0 999.9 1.7 69
2019-09-22 23:00:00 18.6 12 Nordeste 21 Norte 0 999.3 2.6 70
2019-09-22 22:00:00 19.1 14 Norte 22 Nordeste 0 998.7 2.9 71
2019-09-22 21:00:00 20.6 22 Nordeste 32 Nordeste 0 998.2 3.7 73
2019-09-22 20:00:00 22 20 Nordeste 37 Este 0 996.7 2.6 83
2019-09-22 19:00:00 25.1 20 Nordeste 26 Nordeste 0 995.8 1.7 72
2019-09-22 18:00:00 27.4 17 Sur 30 Sur 0 994.5 0.3 64
2019-09-22 17:00:00 28 23 Sur 32 Sur 0 994.1 -0.6 64
2019-09-22 16:00:00 28.4 24 Sur 35 Sur 0 994.1 -1.1 62
2019-09-22 15:00:00 28 23 Sur 33 Sur 0 994.2 -1.6 63
2019-09-22 14:00:00 27.6 23 Sur 33 Sur 0 994.7 -1.3 59
2019-09-22 13:00:00 26 17 Sur 28 Sur 0 995.2 -0.9 66
2019-09-22 12:00:00 24.3 12 Sur 21 Sur 0 995.8 0 73
2019-09-22 11:00:00 21.4 5 Este 9 Este 0 996 0.5 80
2019-09-22 10:00:00 19.8 0 Calma 9 Sur 0 996.1 0.9 86
2019-09-22 09:00:00 16.8 0 Calma 8 Noroeste 0 995.8 0.5 99
2019-09-22 08:00:00 14.8 0 Calma 8 Sudoeste 0 995.5 -0.2 99
2019-09-22 07:00:00 14.8 0 Calma 9 Sudoeste 0 995.2 -1 99
2019-09-22 06:00:00 15.1 7 Oeste 11 Oeste 0 995.3 -1.9 99
2019-09-22 05:00:00 15.4 0 Calma 5 Este 0 995.7 -1.7 98
2019-09-22 04:00:00 16.1 0 Calma 8 Oeste 0 996.2 -1.3 99
2019-09-22 03:00:00 16.4 4 Oeste 9 Oeste 0 997.2 -0.1 99
2019-09-22 02:00:00 16.5 0 Calma 5 Sur 0 997.4 0 98
2019-09-22 01:00:00 16.3 0 Calma 8 Oeste 0 997.5 -0.3 98
2019-09-22 00:00:00 17.2 0 Calma 8 Este 0 997.3 -0.3 97
2019-09-21 23:00:00 17.9 0 Calma 11 Oeste 0 997.4 -0.3 93
2019-09-21 22:00:00 18.7 6 Noroeste 9 Noroeste 0 997.8 0.2 94
2019-09-21 21:00:00 18.9 6 Norte 13 Norte 0 997.6 -0.4 93
2019-09-21 20:00:00 19.2 7 Nordeste 15 Nordeste 0 997.7 -0.4 92
2019-09-21 19:00:00 19.9 11 Norte 18 Norte 0 997.6 -0.2 88
2019-09-21 18:00:00 19.7 14 Norte 21 Nordeste 0 998 -0.8 93
2019-09-21 17:00:00 18.6 16 Norte 30 Nordeste 0.6 998.1 -0.3 97
2019-09-21 16:00:00 19 12 Norte 18 Nordeste 1.1 997.8 -2 97
2019-09-21 15:00:00 19.5 13 Nordeste 22 Nordeste 0.2 998.8 -0.9 96
2019-09-21 14:00:00 18.9 9 Norte 30 Nordeste 0 998.4 -2.2 96
2019-09-21 13:00:00 18.8 10 Norte 22 Noroeste 0 999.8 0.3 96
2019-09-21 12:00:00 18.3 10 Norte 28 Este 8.8 999.7 0.2 97
2019-09-21 11:00:00 19 16 Nordeste 26 Norte 1.4 1000.6 1.5 96
2019-09-21 10:00:00 19.4 7 Nordeste 30 Norte 0 999.5 0.2 93
2019-09-21 09:00:00 19.3 11 Nordeste 22 Norte 0 999.5 -0.5 89
2019-09-21 08:00:00 19 11 Norte 21 Norte 0 999.1 -1.6 89
2019-09-21 07:00:00 19 7 Nordeste 9 Este 0 999.3 -2.4 89
2019-09-21 06:00:00 19 6 Nordeste 11 Nordeste 0 1000 -1.6 91
2019-09-21 05:00:00 18.8 4 Norte 9 Nordeste 0 1000.7 -1.3 92
2019-09-21 04:00:00 18.4 6 Noroeste 9 Noroeste 0 1001.7 -0.6 92
2019-09-21 03:00:00 17.9 4 Norte 9 Norte 0 1001.6 -1.2 94
2019-09-21 02:00:00 18.8 6 Norte 9 Norte 0 1002 -0.9 91
2019-09-21 01:00:00 18.9 7 Nordeste 11 Norte 0 1002.3 -0.9 89
2019-09-21 00:00:00 19.5 6 Norte 13 Norte 0 1002.8 -0.3 87
2019-09-20 23:00:00 19.7 8 Norte 13 Norte 0 1002.9 0.5 87
2019-09-20 22:00:00 19.9 8 Norte 11 Norte 0 1003.2 0.9 85
2019-09-20 21:00:00 20.6 6 Nordeste 15 Nordeste 0 1003.1 1.1 82
2019-09-20 20:00:00 21.7 11 Este 35 Este 0 1002.4 0.6 79
2019-09-20 19:00:00 23.5 15 Este 24 Nordeste 0 1002.3 -0.1 73
2019-09-20 18:00:00 25.4 15 Este 26 Nordeste 0 1002 -0.8 65
2019-09-20 17:00:00 26.9 16 Este 26 Este 0 1001.8 -1.7 58
2019-09-20 16:00:00 27.4 10 Este 26 Este 0 1002.4 -1.8 54
2019-09-20 15:00:00 28.3 11 Nordeste 21 Nordeste 0 1002.8 -1.8 48
2019-09-20 14:00:00 27.3 15 Nordeste 26 Nordeste 0 1003.5 -1.2 48
2019-09-20 13:00:00 25.7 12 Nordeste 22 Norte 0 1004.2 -0.5 54
2019-09-20 12:00:00 23.8 11 Nordeste 22 Nordeste 0 1004.6 0.7 59
2019-09-20 11:00:00 23 13 Nordeste 18 Nordeste 0 1004.7 1.3 62
2019-09-20 10:00:00 21 13 Nordeste 21 Nordeste 0 1004.7 1.5 71
2019-09-20 09:00:00 18.5 3 Norte 8 Norte 0 1003.9 0.8 84
2019-09-20 08:00:00 16.8 4 Norte 8 Norte 0 1003.4 0.3 91
2019-09-20 07:00:00 17.8 5 Norte 11 Norte 0 1003.2 -0.1 83
2019-09-20 06:00:00 17.5 6 Norte 13 Norte 0 1003.1 -0.3 89
2019-09-20 05:00:00 16.4 3 Norte 9 Norte 0 1003.1 -0.2 93
2019-09-20 04:00:00 16.6 3 Nordeste 8 Nordeste 0 1003.3 0.1 92
2019-09-20 03:00:00 16.9 6 Norte 9 Norte 0 1003.4 0.1 92
2019-09-20 02:00:00 17.3 0 Calma 9 Norte 0 1003.3 0 91
2019-09-20 01:00:00 18.2 6 Noroeste 11 Noroeste 0 1003.2 -0.1 88
2019-09-20 00:00:00 18.8 7 Oeste 13 Noroeste 0 1003.3 0.8 86
2019-09-19 23:00:00 18.5 0 Calma 11 Oeste 0 1003.3 1.3 92
2019-09-19 22:00:00 19.3 2 Oeste 11 Noroeste 0 1003.3 1.5 90
2019-09-19 21:00:00 19.6 5 Noroeste 13 Noroeste 0.2 1002.5 1 89
2019-09-19 20:00:00 21.4 8 Oeste 13 Sur 0.3 1002 1.3 78
2019-09-19 19:00:00 23.1 12 Sudoeste 24 Sur 0 1001.8 1.4 57
2019-09-19 18:00:00 24.3 15 Sudoeste 32 Sur 0 1001.5 1 51
2019-09-19 17:00:00 27 26 Sur 37 Sur 0 1000.7 -0.4 43
2019-09-19 16:00:00 29.5 24 Sudoeste 35 Sur 0 1000.4 -1.1 40
2019-09-19 15:00:00 29.9 6 Este 17 Sudeste 0 1000.5 -1.8 36
2019-09-19 14:00:00 29.1 11 Sudoeste 18 Sudoeste 0 1001.1 -1.4 38
2019-09-19 13:00:00 27.9 6 Sur 17 Sur 0 1001.5 -0.9 41
2019-09-19 12:00:00 26.7 7 Sur 15 Este 0 1002.3 0.3 46
2019-09-19 11:00:00 24.8 8 Este 15 Sudeste 0 1002.5 0.9 54
2019-09-19 10:00:00 20.8 5 Nordeste 11 Nordeste 0 1002.4 1.2 71
2019-09-19 09:00:00 17.1 4 Norte 9 Noroeste 0 1002 1.3 85
2019-09-19 08:00:00 16.8 7 Nordeste 13 Norte 0 1001.6 1.1 86
2019-09-19 07:00:00 15.4 7 Norte 9 Nordeste 0 1001.2 0.6 92
2019-09-19 06:00:00 15.8 2 Norte 9 Oeste 0 1000.7 -0.5 88
2019-09-19 05:00:00 16.8 0 Calma 8 Sur 0 1000.5 -1.1 83
2019-09-19 04:00:00 18.4 0 Calma 18 Noroeste 0 1000.6 -0.8 74
2019-09-19 03:00:00 19 7 Noroeste 13 Noroeste 0 1001.2 -0.1 72
2019-09-19 02:00:00 19.7 5 Norte 13 Noroeste 0 1001.6 0.5 72
2019-09-19 01:00:00 20.3 7 Norte 18 Norte 0 1001.4 1 67
2019-09-19 00:00:00 20 11 Norte 17 Nordeste 0 1001.3 1.7 72
2019-09-18 23:00:00 19.7 8 Norte 15 Norte 0 1001.1 2.1 80
2019-09-18 22:00:00 19.5 4 Norte 13 Nordeste 0 1000.4 0.7 79
2019-09-18 21:00:00 20.3 8 Este 17 Nordeste 0 999.6 -0.3 78
2019-09-18 20:00:00 21.2 9 Oeste 21 Noroeste 0 999 -0.6 78
2019-09-18 19:00:00 22.1 12 Oeste 24 Oeste 0 999.7 0.3 76
2019-09-18 18:00:00 24.5 9 Oeste 21 Oeste 0 999.9 0.8 59
2019-09-18 17:00:00 26.4 14 Sudoeste 32 Sudoeste 0 999.6 0.3 51
2019-09-18 16:00:00 29.7 22 Sudoeste 32 Sur 0 999.4 -0.3 45
2019-09-18 15:00:00 31.8 8 Este 18 Este 0 999.1 -0.8 31
2019-09-18 14:00:00 31.2 8 Este 17 Este 0 999.3 -0.3 32
2019-09-18 13:00:00 29.5 10 Nordeste 22 Nordeste 0 999.7 0.4 35
2019-09-18 12:00:00 28.3 5 Nordeste 22 Este 0 999.9 1.2 37
2019-09-18 11:00:00 26.3 18 Nordeste 24 Nordeste 0 999.6 1.2 47
2019-09-18 10:00:00 23.9 6 Nordeste 13 Nordeste 0 999.3 1.3 64
2019-09-18 09:00:00 18.5 3 Sudoeste 11 Nordeste 0 998.7 1 87
2019-09-18 08:00:00 15.8 3 Nordeste 9 Nordeste 0 998.4 0.4 93
2019-09-18 07:00:00 16.2 8 Oeste 11 Oeste 0 998 -0.4 92
2019-09-18 06:00:00 16.9 8 Norte 13 Norte 0 997.7 -1.1 94
2019-09-18 05:00:00 16.9 7 Nordeste -- -- 0 998 -0.8 95
2019-09-18 04:00:00 16.9 0 Calma 11 Nordeste 0 998.4 -0.7 95
2019-09-18 03:00:00 16.5 8 Oeste 11 Oeste 0 998.8 -0.9 93
2019-09-18 02:00:00 17.7 2 Este 9 Este 0 998.8 -0.2 92
2019-09-18 01:00:00 17.4 6 Norte 8 Nordeste 0 999.1 0.2 91
2019-09-18 00:00:00 18.2 8 Sudoeste 17 Sudoeste 0 999.7 1.3 89
2019-09-17 23:00:00 18.8 0 Calma 8 Oeste 0 999 0.6 84
2019-09-17 22:00:00 20 7 Oeste 8 Oeste 0 998.9 0.2 83
2019-09-17 21:00:00 21.9 4 Oeste 11 Sur 0 998.4 -0.4 76
2019-09-15 18:00:00 29.7 10 Este 21 Este 0 1005.2 -1.1 38
2019-09-15 17:00:00 29.9 14 Sudeste 28 Sudeste 0 1005.4 -1.7 39
2019-09-15 16:00:00 30.1 6 Nordeste 22 Nordeste 0 1006 -1.7 37
2019-09-15 15:00:00 29 9 Norte 21 Norte 0 1006.3 -1.7 39
2019-09-15 14:00:00 27.9 9 Nordeste 22 Nordeste 0 1007.1 -1.2 42
2019-09-15 13:00:00 27.1 13 Norte 22 Norte 0 1007.7 -0.6 49
2019-09-15 12:00:00 25.5 17 Nordeste 24 Nordeste 0 1008 0 51
2019-09-15 11:00:00 23.2 17 Norte 22 Nordeste 0 1008.3 0.8 69
2019-09-15 10:00:00 21.3 16 Norte 22 Norte 0 1008.3 0.8 75
2019-09-15 09:00:00 18.9 11 Norte 18 Norte 0 1008 0.9 70
2019-09-15 08:00:00 16.8 10 Norte 18 Norte 0 1007.5 -0.1 79
2019-09-15 07:00:00 15.2 7 Nordeste 11 Nordeste 0 1007.5 -0.9 91
2019-09-15 06:00:00 15.9 0 Calma 18 Nordeste 0 1007.1 -1.8 86
2019-09-15 05:00:00 16.6 10 Norte 15 Nordeste 0 1007.6 -1.2 81
2019-09-15 04:00:00 16.5 8 Norte 13 Noroeste 0 1008.4 -0.2 88
2019-09-15 03:00:00 17.9 2 Norte -- -- -- 1008.9 -0.3 85
2019-09-15 02:00:00 18.8 4 Sudeste 11 Norte 0 1008.8 -0.6 80
2019-09-15 01:00:00 18.9 8 Norte 13 Norte 0 1008.6 -0.8 80
2019-09-15 00:00:00 19.6 8 Norte 13 Norte 0 1009.2 0.6 75